Time;durP1;ratioP1;P1;durP2;ratioP2;P2;SDS_P1;SDS_P2;PMS_P1;PMS_P2;Temp;Humidity;BMP_temperature;BMP_pressure;BME280_temperature;BME280_humidity;BME280_pressure;Samples;Min_cycle;Max_cycle;Signal;HPM_P1;HPM_P2
2022/06/13 00:01:52;;;;;;;1999.90;999.90;;;16.30;99.90;;;;;;5039911;28;20250;-87
2022/06/13 00:04:18;;;;;;;1999.90;999.90;;;16.20;99.90;;;;;;5042484;28;20025;-87
2022/06/13 00:06:44;;;;;;;1999.90;999.90;;;16.10;99.90;;;;;;5036915;28;20036;-87
2022/06/13 00:09:10;;;;;;;1999.90;999.90;;;16.10;99.90;;;;;;5039639;28;20043;-87
2022/06/13 00:11:36;;;;;;;1999.90;999.90;;;16.10;99.90;;;;;;5034652;28;20048;-88
2022/06/13 00:14:03;;;;;;;1999.90;999.90;;;16.10;99.90;;;;;;5032510;28;20080;-86
2022/06/13 00:16:29;;;;;;;1999.90;999.90;;;16.10;99.90;;;;;;5034266;28;20155;-87
2022/06/13 00:18:55;;;;;;;1999.90;999.90;;;16.10;99.90;;;;;;5031314;28;20570;-87
2022/06/13 00:21:34;;;;;;;1999.90;999.90;;;16.20;99.90;;;;;;5030851;28;20028;-87
2022/06/13 00:24:03;;;;;;;1999.90;999.90;;;16.10;99.90;;;;;;5030159;28;20269;-87
2022/06/13 00:26:32;;;;;;;1999.90;999.90;;;16.10;99.90;;;;;;5044790;28;20082;-87
2022/06/13 00:28:59;;;;;;;1999.90;999.90;;;16.10;99.90;;;;;;5042521;28;20045;-87
2022/06/13 00:31:25;;;;;;;1999.90;999.90;;;16.00;99.90;;;;;;5041630;28;20098;-87
2022/06/13 00:33:50;;;;;;;1999.90;999.90;;;16.10;99.90;;;;;;5023086;28;20029;-87
2022/06/13 00:36:17;;;;;;;1999.90;999.90;;;16.20;99.90;;;;;;5040265;28;20029;-87
2022/06/13 00:38:43;;;;;;;1999.90;999.90;;;16.20;99.90;;;;;;5039161;28;20025;-87
2022/06/13 00:41:15;;;;;;;1999.90;999.90;;;16.10;99.90;;;;;;5036152;28;20153;-87
2022/06/13 00:43:43;;;;;;;1999.90;999.90;;;16.10;99.90;;;;;;5034608;28;20547;-87
2022/06/13 00:46:27;;;;;;;1999.90;999.90;;;16.10;99.90;;;;;;5034166;28;20036;-86
2022/06/13 00:48:58;;;;;;;1999.90;999.90;;;16.20;99.90;;;;;;5033005;28;20068;-87
2022/06/13 00:51:24;;;;;;;1999.90;999.90;;;16.10;99.90;;;;;;5030286;28;20049;-87
2022/06/13 00:53:51;;;;;;;1999.90;999.90;;;16.20;99.90;;;;;;5028536;28;20030;-86
2022/06/13 00:56:22;;;;;;;1999.90;999.90;;;16.10;99.90;;;;;;5046073;28;20123;-85
2022/06/13 00:59:00;;;;;;;1999.90;999.90;;;16.30;99.90;;;;;;5037501;28;20017;-87
2022/06/13 01:01:29;;;;;;;1999.90;999.90;;;16.40;99.90;;;;;;5029771;28;20136;-87
2022/06/13 01:03:56;;;;;;;1999.90;999.90;;;16.30;99.90;;;;;;5040477;28;20021;-86
2022/06/13 01:06:22;;;;;;;1999.90;999.90;;;16.30;99.90;;;;;;5019237;28;20079;-86
2022/06/13 01:08:48;;;;;;;1999.90;999.90;;;16.30;99.90;;;;;;5037146;28;20487;-86
2022/06/13 01:11:18;;;;;;;1999.90;999.90;;;16.10;99.90;;;;;;5033973;28;20036;-86
2022/06/13 01:13:58;;;;;;;1999.90;999.90;;;16.00;99.90;;;;;;5035339;28;20119;-86
2022/06/13 01:16:46;;;;;;;1999.90;999.90;;;16.00;99.90;;;;;;5028384;28;20535;-87
2022/06/13 01:19:55;;;;;;;1999.90;999.90;;;16.00;99.90;;;;;;5032309;28;20031;-86
2022/06/13 01:22:54;;;;;;;1999.90;999.90;;;16.00;99.90;;;;;;5027407;28;20017;-87
2022/06/13 01:25:39;;;;;;;1999.90;999.90;;;16.20;99.90;;;;;;5038995;28;20056;-86
2022/06/13 01:28:16;;;;;;;1999.90;999.90;;;16.30;99.90;;;;;;5043811;28;20083;-87
2022/06/13 01:30:57;;;;;;;1999.90;999.90;;;16.20;99.90;;;;;;5042248;28;20116;-85
2022/06/13 01:33:42;;;;;;;1999.90;999.90;;;16.30;99.90;;;;;;5032230;28;20045;-86
2022/06/13 01:36:31;;;;;;;1999.90;999.90;;;16.20;99.90;;;;;;5038918;28;20033;-86
2022/06/13 01:39:18;;;;;;;1999.90;999.90;;;16.10;99.90;;;;;;5034730;28;20239;-87
2022/06/13 01:42:01;;;;;;;1999.90;999.90;;;16.00;99.90;;;;;;5034068;28;20025;-87
2022/06/13 01:45:03;;;;;;;1999.90;999.90;;;16.10;99.90;;;;;;5040780;28;20124;-87
2022/06/13 01:47:53;;;;;;;1999.90;999.90;;;16.10;99.90;;;;;;5026184;28;20079;-87
2022/06/13 01:50:33;;;;;;;1999.90;999.90;;;16.10;99.90;;;;;;5042668;28;20053;-87
2022/06/13 01:53:18;;;;;;;1999.90;999.90;;;16.00;99.90;;;;;;5023675;28;20053;-87
2022/06/13 01:56:02;;;;;;;1999.90;999.90;;;16.00;99.90;;;;;;5045880;28;20099;-87
2022/06/13 01:58:44;;;;;;;1999.90;999.90;;;16.10;99.90;;;;;;5041743;28;20033;-87
2022/06/13 02:01:34;;;;;;;1999.90;999.90;;;16.10;99.90;;;;;;5028464;28;20041;-87
2022/06/13 02:03:59;;;;;;;1999.90;999.90;;;16.00;99.90;;;;;;5025120;28;20393;-87
2022/06/13 02:06:35;;;;;;;1999.90;999.90;;;16.00;99.90;;;;;;5037359;28;20481;-87
2022/06/13 02:09:02;;;;;;;1999.90;999.90;;;15.90;99.90;;;;;;5028218;28;20033;-86
2022/06/13 02:11:49;;;;;;;1999.90;999.90;;;15.80;99.90;;;;;;5026213;28;20075;-87
2022/06/13 02:14:45;;;;;;;1999.90;999.90;;;15.90;99.90;;;;;;5030213;28;20026;-88
2022/06/13 02:17:17;;;;;;;1999.90;999.90;;;15.70;99.90;;;;;;5027588;28;20033;-86
2022/06/13 02:19:51;;;;;;;1999.90;999.90;;;15.80;99.90;;;;;;5023094;28;20029;-87
2022/06/13 02:22:25;;;;;;;1999.90;999.90;;;15.70;99.90;;;;;;5027250;28;20485;-87
2022/06/13 02:25:00;;;;;;;1999.90;999.90;;;15.80;99.90;;;;;;5018230;28;20055;-87
2022/06/13 02:27:34;;;;;;;1999.90;999.90;;;15.80;99.90;;;;;;5013488;28;20025;-87
2022/06/13 02:30:05;;;;;;;1999.90;999.90;;;15.70;99.90;;;;;;5029236;28;20080;-87
2022/06/13 02:32:49;;;;;;;1999.90;999.90;;;15.80;99.90;;;;;;5036476;28;20485;-87
2022/06/13 02:35:22;;;;;;;1999.90;999.90;;;15.60;99.90;;;;;;5037044;28;20025;-87
2022/06/13 02:37:53;;;;;;;1999.90;999.90;;;15.60;99.90;;;;;;5028863;28;20037;-86
2022/06/13 02:40:28;;;;;;;1999.90;999.90;;;15.50;99.90;;;;;;5030749;28;20025;-87
2022/06/13 02:42:58;;;;;;;1999.90;999.90;;;15.30;99.90;;;;;;5029796;28;20052;-86
2022/06/13 02:45:36;;;;;;;;;;;15.40;99.90;;;;;;5032015;28;20121;-86
2022/06/13 02:48:20;;;;;;;1999.90;999.90;;;15.40;99.90;;;;;;5056855;28;20364;-88
2022/06/13 02:51:10;;;;;;;1999.90;999.90;;;15.40;99.90;;;;;;5029333;28;20021;-87
2022/06/13 02:53:46;;;;;;;1999.90;999.90;;;15.40;99.90;;;;;;5031228;28;20044;-87
2022/06/13 02:57:23;;;;;;;1999.90;999.90;;;15.40;99.90;;;;;;5044145;28;20025;-87
2022/06/13 02:59:37;;;;;;;1999.90;999.90;;;15.30;99.90;;;;;;5034690;28;20022;-87
2022/06/13 03:02:06;;;;;;;1999.90;999.90;;;15.20;99.90;;;;;;5033912;28;20041;-87
2022/06/13 03:04:37;;;;;;;1999.90;999.90;;;15.20;99.90;;;;;;5034726;28;20030;-87
2022/06/13 03:07:21;;;;;;;1999.90;999.90;;;15.20;99.90;;;;;;5035834;28;20033;-87
2022/06/13 03:09:55;;;;;;;1999.90;999.90;;;15.20;99.90;;;;;;5034637;28;20033;-87
2022/06/13 03:13:01;;;;;;;1999.90;999.90;;;15.30;99.90;;;;;;5031982;28;20797;-87
2022/06/13 03:15:34;;;;;;;1999.90;999.90;;;15.30;99.90;;;;;;5027510;28;20030;-87
2022/06/13 03:18:09;;;;;;;1999.90;999.90;;;15.30;99.90;;;;;;5024297;28;20558;-87
2022/06/13 03:20:48;;;;;;;1999.90;999.90;;;15.30;99.90;;;;;;5027779;28;20091;-88
2022/06/13 03:23:21;;;;;;;1999.90;999.90;;;15.20;99.90;;;;;;5028390;28;20044;-86
2022/06/13 03:25:55;;;;;;;1999.90;999.90;;;15.20;99.90;;;;;;5044663;28;20025;-88
2022/06/13 03:28:24;;;;;;;1999.90;999.90;;;15.20;99.90;;;;;;5042302;28;20078;-87
2022/06/13 03:30:55;;;;;;;1999.90;999.90;;;15.20;99.90;;;;;;5048145;28;20028;-88
2022/06/13 03:33:42;;;;;;;1999.90;999.90;;;15.20;99.90;;;;;;5034590;28;20033;-88
2022/06/13 03:36:32;;;;;;;1999.90;999.90;;;15.20;99.90;;;;;;5036151;28;20112;-87
2022/06/13 03:39:05;;;;;;;1999.90;999.90;;;15.30;99.90;;;;;;5035292;28;20436;-87
2022/06/13 03:41:38;;;;;;;1999.90;999.90;;;15.30;99.90;;;;;;5031253;28;20457;-87
2022/06/13 03:44:16;;;;;;;1999.90;999.90;;;15.40;99.90;;;;;;5027668;28;20060;-87
2022/06/13 03:46:55;;;;;;;1999.90;999.90;;;15.40;99.90;;;;;;5030448;28;20026;-87
2022/06/13 03:49:30;;;;;;;1999.90;999.90;;;15.40;99.90;;;;;;5031020;28;20040;-88
2022/06/13 03:52:00;;;;;;;1999.90;999.90;;;15.30;99.90;;;;;;5026999;28;20034;-88
2022/06/13 03:55:07;;;;;;;1999.90;999.90;;;15.30;99.90;;;;;;5025751;28;20029;-87
2022/06/13 03:57:55;;;;;;;1999.90;999.90;;;15.30;99.90;;;;;;5030969;28;20036;-88
2022/06/13 04:00:29;;;;;;;1999.90;999.90;;;15.40;99.90;;;;;;5069616;28;20068;-87
2022/06/13 04:02:56;;;;;;;1999.90;999.90;;;15.20;99.90;;;;;;5035708;28;20237;-88
2022/06/13 04:05:35;;;;;;;1999.90;999.90;;;15.20;99.90;;;;;;5022841;28;20033;-88
2022/06/13 04:08:03;;;;;;;1999.90;999.90;;;15.20;99.90;;;;;;5036635;28;20103;-88
2022/06/13 04:10:38;;;;;;;1999.90;999.90;;;15.20;99.90;;;;;;5031771;28;20056;-89
2022/06/13 04:13:36;;;;;;;1999.90;999.90;;;15.20;99.90;;;;;;5033377;28;20052;-88
2022/06/13 04:16:25;;;;;;;1999.90;999.90;;;15.20;99.90;;;;;;5034466;28;20018;-88
2022/06/13 04:19:12;;;;;;;1999.90;999.90;;;15.30;99.90;;;;;;5030247;28;20612;-88
2022/06/13 04:21:56;;;;;;;1999.90;999.90;;;15.40;99.90;;;;;;5041500;28;20038;-88
2022/06/13 04:24:59;;;;;;;1999.90;999.90;;;15.40;99.90;;;;;;5041815;28;20029;-89
2022/06/13 04:27:38;;;;;;;1999.90;999.90;;;15.40;99.90;;;;;;5038661;28;20159;-88
2022/06/13 04:30:14;;;;;;;1999.90;999.90;;;15.40;99.90;;;;;;5037362;28;20043;-89
2022/06/13 04:32:44;;;;;;;1999.90;999.90;;;15.50;99.90;;;;;;5033448;28;20048;-89
2022/06/13 04:35:10;;;;;;;1999.90;999.90;;;15.60;99.90;;;;;;5039219;28;20044;-88
2022/06/13 04:37:39;;;;;;;1999.90;999.90;;;15.80;99.90;;;;;;5015733;28;20037;-88
2022/06/13 04:40:07;;;;;;;1999.90;999.90;;;15.70;99.90;;;;;;5031330;28;20025;-88
2022/06/13 04:42:36;;;;;;;1999.90;999.90;;;15.70;99.90;;;;;;5027895;28;20018;-88
2022/06/13 04:45:27;;;;;;;1999.90;999.90;;;15.70;99.90;;;;;;5035405;28;20508;-88
2022/06/13 04:47:56;;;;;;;1999.90;999.90;;;15.80;99.90;;;;;;5028223;28;20037;-88
2022/06/13 04:50:39;;;;;;;1999.90;999.90;;;15.90;99.90;;;;;;5031896;28;20057;-88
2022/06/13 04:53:11;;;;;;;1999.90;999.90;;;15.80;99.90;;;;;;5033709;28;20116;-88
2022/06/13 04:55:43;;;;;;;1999.90;999.90;;;15.70;99.90;;;;;;5041428;28;20113;-89
2022/06/13 04:58:24;;;;;;;1999.90;999.90;;;15.70;99.90;;;;;;5035511;28;20025;-88
2022/06/13 05:01:00;;;;;;;1999.90;999.90;;;15.70;99.90;;;;;;5031913;28;20094;-88
2022/06/13 05:03:29;;;;;;;1999.90;999.90;;;15.70;99.90;;;;;;5041101;28;20032;-88
2022/06/13 05:06:03;;;;;;;1999.90;999.90;;;15.90;99.90;;;;;;5032261;28;20135;-89
2022/06/13 05:08:32;;;;;;;1999.90;999.90;;;15.90;99.90;;;;;;5030452;28;20080;-88
2022/06/13 05:11:19;;;;;;;1999.90;999.90;;;15.90;99.90;;;;;;5035124;28;20036;-88
2022/06/13 05:13:47;;;;;;;1999.90;999.90;;;16.00;99.90;;;;;;5030210;28;20124;-88
2022/06/13 05:16:33;;;;;;;1999.90;999.90;;;16.00;99.90;;;;;;5027600;28;20026;-88
2022/06/13 05:19:40;;;;;;;1999.90;999.90;;;16.00;99.90;;;;;;5029244;28;20032;-89
2022/06/13 05:22:36;;;;;;;1999.90;999.90;;;16.00;99.90;;;;;;5005163;28;20038;-88
2022/06/13 05:25:30;;;;;;;1999.90;999.90;;;16.10;99.90;;;;;;5034953;28;20053;-87
2022/06/13 05:27:55;;;;;;;1999.90;999.90;;;16.10;99.90;;;;;;5037091;28;20040;-90
2022/06/13 05:30:22;;;;;;;1999.90;999.90;;;16.30;99.90;;;;;;5022322;28;20075;-89
2022/06/13 05:32:48;;;;;;;1999.90;999.90;;;16.20;99.90;;;;;;5039464;28;20067;-88
2022/06/13 05:35:21;;;;;;;1999.90;999.90;;;16.20;99.90;;;;;;5035552;28;20037;-89
2022/06/13 05:37:47;;;;;;;1999.90;999.90;;;16.30;99.90;;;;;;5032273;28;20029;-88
2022/06/13 05:40:19;;;;;;;1999.90;999.90;;;16.50;99.90;;;;;;5026700;28;20034;-89
2022/06/13 05:42:45;;;;;;;1999.90;999.90;;;16.50;99.90;;;;;;5022043;28;20041;-89
2022/06/13 05:45:13;;;;;;;1999.90;999.90;;;16.60;99.90;;;;;;5019664;28;20066;-89
2022/06/13 05:47:41;;;;;;;1999.90;999.90;;;16.70;99.90;;;;;;5025046;28;20064;-89
2022/06/13 05:50:13;;;;;;;1999.90;999.90;;;16.40;99.90;;;;;;5031260;28;20036;-90
2022/06/13 05:52:39;;;;;;;1999.90;999.90;;;16.50;99.90;;;;;;5028575;28;20029;-89
2022/06/13 05:55:05;;;;;;;1999.90;999.90;;;16.60;99.90;;;;;;5032911;28;20038;-89
2022/06/13 05:57:31;;;;;;;1999.90;999.90;;;16.70;99.90;;;;;;5042208;28;20025;-89
2022/06/13 05:59:57;;;;;;;1999.90;999.90;;;16.80;99.90;;;;;;5019976;28;20243;-88
2022/06/13 06:02:22;;;;;;;1999.90;999.90;;;16.50;99.90;;;;;;5034532;28;20044;-89
2022/06/13 06:04:48;;;;;;;1999.90;999.90;;;16.30;99.90;;;;;;5032969;28;20036;-88
2022/06/13 06:07:13;;;;;;;1999.90;999.90;;;16.20;99.90;;;;;;5037002;28;20040;-89
2022/06/13 06:09:39;;;;;;;1999.90;999.90;;;16.00;99.90;;;;;;5034090;28;20552;-90
2022/06/13 06:12:05;;;;;;;1999.90;999.90;;;16.10;99.90;;;;;;5032642;28;20041;-90
2022/06/13 06:14:31;;;;;;;1999.90;999.90;;;16.10;99.90;;;;;;5029126;28;20037;-89
2022/06/13 06:16:56;;;;;;;1999.90;999.90;;;16.00;99.90;;;;;;5030070;28;20401;-89
2022/06/13 06:19:22;;;;;;;1999.90;999.90;;;16.10;99.90;;;;;;5031087;28;20025;-88
2022/06/13 06:21:48;;;;;;;1999.90;999.90;;;15.80;99.90;;;;;;5029553;28;20056;-90
2022/06/13 06:24:14;;;;;;;1999.90;999.90;;;15.70;99.90;;;;;;5015844;28;20267;-89
2022/06/13 06:26:39;;;;;;;1999.90;999.90;;;15.80;99.90;;;;;;5021756;28;20186;-88
2022/06/13 06:29:05;;;;;;;1999.90;999.90;;;16.00;99.90;;;;;;5030591;28;20116;-89
2022/06/13 06:31:32;;;;;;;1999.90;999.90;;;16.10;99.90;;;;;;5025048;28;20036;-89
2022/06/13 06:33:58;;;;;;;1999.90;999.90;;;16.20;99.90;;;;;;5025808;28;20030;-89
2022/06/13 06:36:23;;;;;;;1999.90;999.90;;;16.20;99.90;;;;;;5032848;28;20509;-89
2022/06/13 06:38:49;;;;;;;1999.90;999.90;;;16.30;99.90;;;;;;5017838;28;20056;-88
2022/06/13 06:41:15;;;;;;;1999.90;999.90;;;16.00;99.90;;;;;;5034213;28;20032;-88
2022/06/13 06:43:42;;;;;;;1999.90;999.90;;;16.10;99.90;;;;;;5030164;28;20488;-88
2022/06/13 06:46:08;;;;;;;1999.90;999.90;;;16.20;99.90;;;;;;5024701;28;20088;-88
2022/06/13 06:48:36;;;;;;;1999.90;999.90;;;16.20;99.90;;;;;;5027685;28;20033;-88
2022/06/13 06:51:06;;;;;;;963.08;699.88;;;16.00;99.90;;;;;;5024369;28;20045;-87
2022/06/13 06:59:53;;;;;;;1999.90;999.90;;;15.80;99.90;;;;;;5037160;28;20029;-88
2022/06/13 07:01:45;;;;;;;1999.90;999.90;;;16.50;99.90;;;;;;5036003;28;20052;-88
2022/06/13 07:04:11;;;;;;;936.97;842.95;;;16.40;99.90;;;;;;5021730;28;20038;-89
2022/06/13 07:06:38;;;;;;;1280.85;936.63;;;16.30;99.90;;;;;;5038218;28;20025;-88
2022/06/13 07:09:04;;;;;;;965.25;871.53;;;16.40;99.90;;;;;;5033741;28;20044;-90
2022/06/13 07:14:15;;;;;;;1008.25;909.90;;;17.00;99.90;;;;;;5030785;28;20147;-87
2022/06/13 07:16:40;;;;;;;1098.50;935.75;;;17.30;99.90;;;;;;5007389;28;20056;-88
2022/06/13 07:19:07;;;;;;;963.70;881.53;;;17.50;99.90;;;;;;5027494;28;20400;-88
2022/06/13 07:21:33;;;;;;;981.67;896.13;;;17.60;99.90;;;;;;5025216;28;20026;-88
2022/06/13 07:23:59;;;;;;;960.65;873.28;;;17.50;99.90;;;;;;5024254;28;20045;-88
2022/06/13 07:26:24;;;;;;;969.70;884.15;;;17.80;99.90;;;;;;5035194;28;20035;-88
2022/06/13 07:28:50;;;;;;;1035.43;946.83;;;17.90;99.90;;;;;;5037012;28;20047;-88
2022/06/13 07:31:19;;;;;;;980.25;891.42;;;17.70;99.90;;;;;;5041191;28;20507;-88
2022/06/13 07:33:48;;;;;;;1060.50;945.75;;;17.60;99.90;;;;;;5042829;28;20128;-88
2022/06/13 07:36:14;;;;;;;914.42;845.17;;;17.60;99.90;;;;;;5040811;28;20061;-88
2022/06/13 07:38:40;;;;;;;931.80;856.67;;;17.40;99.90;;;;;;5038964;28;20104;-88
2022/06/13 07:41:06;;;;;;;940.88;867.45;;;17.20;99.90;;;;;;5021836;28;20521;-89
2022/06/13 07:43:35;;;;;;;956.75;884.40;;;17.20;99.90;;;;;;5014207;28;20036;-87
2022/06/13 07:46:04;;;;;;;988.38;910.22;;;17.20;99.90;;;;;;5024632;28;20042;-89
2022/06/13 07:48:31;;;;;;;944.55;868.30;;;16.90;99.90;;;;;;5025650;28;20029;-88
2022/06/13 07:50:57;;;;;;;938.00;861.00;;;16.70;99.90;;;;;;5018273;28;20553;-88
2022/06/13 07:53:24;;;;;;;927.05;858.55;;;16.60;99.90;;;;;;5031930;28;20559;-89
2022/06/13 07:55:49;;;;;;;923.22;844.88;;;16.60;99.90;;;;;;5040765;28;20214;-89
2022/06/13 07:58:24;;;;;;;1625.10;999.90;;;16.90;99.90;;;;;;5009488;28;20136;-88
2022/06/13 08:00:50;;;;;;;920.47;839.25;;;17.20;99.90;;;;;;5070580;28;20041;-88
2022/06/13 08:03:25;;;;;;;907.05;839.10;;;17.50;99.60;;;;;;5029268;28;20034;-89
2022/06/13 08:05:52;;;;;;;932.00;856.60;;;17.80;99.90;;;;;;5033415;28;20017;-89
2022/06/13 08:08:18;;;;;;;917.22;850.72;;;18.20;99.90;;;;;;5039692;28;20039;-89
2022/06/13 08:10:45;;;;;;;902.58;836.90;;;18.20;99.50;;;;;;5035149;28;20025;-89
2022/06/13 08:13:15;;;;;;;948.60;873.55;;;18.10;99.90;;;;;;5032271;28;20057;-90
2022/06/13 08:15:42;;;;;;;1024.82;896.20;;;18.00;99.60;;;;;;5035506;28;20511;-88
2022/06/13 08:18:08;;;;;;;1033.28;944.50;;;17.90;99.10;;;;;;5033190;28;20117;-88
2022/06/13 08:20:34;;;;;;;982.78;901.88;;;17.90;98.80;;;;;;5013602;28;20045;-89
2022/06/13 08:23:00;;;;;;;997.45;905.22;;;17.90;99.30;;;;;;5033702;28;20512;-88
2022/06/13 08:25:29;;;;;;;967.58;886.90;;;18.00;96.90;;;;;;5045636;28;20482;-90
2022/06/13 08:27:57;;;;;;;1018.28;926.65;;;17.90;94.80;;;;;;5025309;28;20025;-91
2022/06/13 08:30:24;;;;;;;887.95;815.95;;;18.10;96.50;;;;;;5037801;28;20040;-90
2022/06/13 08:32:50;;;;;;;1025.60;934.08;;;18.40;97.00;;;;;;5034755;28;20448;-90
2022/06/13 08:35:16;;;;;;;1083.68;982.08;;;18.50;91.90;;;;;;5031230;28;20030;-91
2022/06/13 08:37:41;;;;;;;1121.90;998.47;;;18.20;92.10;;;;;;5024393;28;20022;-90
2022/06/13 08:40:09;;;;;;;1110.15;998.05;;;18.20;91.70;;;;;;5033985;28;20075;-89
2022/06/13 08:43:02;;;;;;;1009.58;921.20;;;18.40;91.00;;;;;;5031717;28;20057;-89
2022/06/13 08:45:38;;;;;;;1135.75;999.90;;;18.50;92.20;;;;;;5032620;28;20087;-91
2022/06/13 08:48:23;;;;;;;1147.65;999.90;;;18.70;84.10;;;;;;5023342;28;20477;-90
2022/06/13 08:51:19;;;;;;;1138.88;999.90;;;18.70;83.90;;;;;;5028812;28;20033;-90
2022/06/13 08:53:54;;;;;;;1123.93;999.90;;;18.80;82.60;;;;;;5032425;28;20037;-89
2022/06/13 08:56:22;;;;;;;1079.28;981.28;;;18.90;79.40;;;;;;5031192;28;20183;-89
2022/06/13 08:59:44;;;;;;;1187.80;999.90;;;19.10;87.60;;;;;;5059174;28;20029;-88
2022/06/13 09:02:48;;;;;;;1134.88;999.90;;;19.30;79.90;;;;;;5038291;28;20132;-88
2022/06/13 09:05:22;;;;;;;1091.35;992.40;;;19.40;74.60;;;;;;5007352;28;20033;-89
2022/06/13 09:08:22;;;;;;;1103.88;990.08;;;19.90;76.10;;;;;;5009001;28;20052;-88
2022/06/13 09:10:52;;;;;;;1169.72;999.90;;;19.70;74.30;;;;;;5031955;28;20021;-89
2022/06/13 09:13:59;;;;;;;1150.38;999.90;;;19.70;75.50;;;;;;5029030;28;20431;-89
2022/06/13 09:16:30;;;;;;;1160.05;999.90;;;20.10;74.30;;;;;;5025080;28;20042;-90
2022/06/13 09:19:20;;;;;;;1062.40;967.38;;;20.40;69.60;;;;;;5029590;28;20044;-89
2022/06/13 09:21:53;;;;;;;1182.82;999.90;;;20.40;70.10;;;;;;5042082;28;20740;-89
2022/06/13 09:24:31;;;;;;;1265.97;999.90;;;20.20;70.10;;;;;;5034437;28;20032;-88
2022/06/13 09:27:12;;;;;;;1354.13;999.90;;;20.20;68.50;;;;;;5027158;28;20032;-90
2022/06/13 09:29:51;;;;;;;1161.35;999.90;;;20.10;68.20;;;;;;5041141;28;20033;-89
2022/06/13 09:32:26;;;;;;;1228.78;999.90;;;20.50;64.60;;;;;;5039093;28;20049;-90
2022/06/13 09:34:59;;;;;;;1258.07;999.90;;;20.30;65.20;;;;;;5027633;28;20032;-91
2022/06/13 09:37:36;;;;;;;1344.45;999.90;;;20.40;64.60;;;;;;5031774;28;20017;-88
2022/06/13 09:40:02;;;;;;;1233.43;999.90;;;20.50;66.20;;;;;;5034884;28;20112;-87
2022/06/13 09:42:47;;;;;;;1280.63;999.90;;;20.70;65.50;;;;;;5032896;28;20057;-89
2022/06/13 09:45:39;;;;;;;1357.50;999.90;;;20.80;62.90;;;;;;5027800;28;20668;-90
2022/06/13 09:48:25;;;;;;;1354.55;999.90;;;20.60;61.50;;;;;;5031359;28;20052;-90
2022/06/13 09:51:23;;;;;;;1071.28;967.97;;;21.00;60.40;;;;;;5029201;28;20025;-90
2022/06/13 09:54:24;;;;;;;1420.28;999.90;;;21.50;66.20;;;;;;5027518;28;20128;-89
2022/06/13 09:56:58;;;;;;;1513.90;999.90;;;21.50;60.40;;;;;;5041657;28;20036;-90
2022/06/13 09:59:35;;;;;;;1359.10;999.90;;;21.50;62.10;;;;;;5037078;28;20126;-88
2022/06/13 10:02:17;;;;;;;1332.63;999.90;;;21.60;64.30;;;;;;5035052;28;20048;-88
2022/06/13 10:05:12;;;;;;;1357.60;999.90;;;21.60;59.40;;;;;;5034860;28;20029;-87
2022/06/13 10:08:04;;;;;;;1188.25;999.90;;;21.70;57.90;;;;;;5036167;28;20026;-90
2022/06/13 10:10:48;;;;;;;1234.75;999.90;;;21.70;56.30;;;;;;5025718;28;20497;-88
2022/06/13 10:13:20;;;;;;;1458.50;999.90;;;22.20;57.80;;;;;;5029348;28;20022;-89
2022/06/13 10:16:10;;;;;;;1320.20;999.90;;;22.00;57.60;;;;;;5026297;28;20520;-90
2022/06/13 10:18:42;;;;;;;1402.18;999.90;;;22.60;58.60;;;;;;5031158;28;20049;-89
2022/06/13 10:21:26;;;;;;;1372.50;999.90;;;22.40;55.60;;;;;;5025726;28;20068;-91
2022/06/13 10:24:04;;;;;;;1372.57;999.90;;;21.70;56.30;;;;;;5041769;28;20103;-88
2022/06/13 10:26:54;;;;;;;1285.40;999.90;;;20.70;54.50;;;;;;5039206;28;20029;-90
2022/06/13 10:29:51;;;;;;;1378.97;999.90;;;21.20;57.00;;;;;;5037744;28;20028;-90
2022/06/13 10:32:54;;;;;;;1249.15;999.90;;;21.70;56.60;;;;;;4987289;28;20183;-88
2022/06/13 10:35:46;;;;;;;1269.20;999.90;;;22.10;50.20;;;;;;5037576;28;20029;-89
2022/06/13 10:38:48;;;;;;;1417.88;999.90;;;22.10;54.00;;;;;;5033097;28;20034;-91
2022/06/13 10:41:14;;;;;;;1250.78;999.90;;;22.20;52.00;;;;;;5033689;28;20022;-89
2022/06/13 10:43:42;;;;;;;1357.65;999.90;;;22.00;50.30;;;;;;5031323;28;20400;-89
2022/06/13 10:46:11;;;;;;;1542.00;999.90;;;22.50;49.50;;;;;;5028490;28;20559;-90
2022/06/13 10:49:14;;;;;;;1538.18;999.90;;;21.90;49.80;;;;;;5023313;28;20038;-90
2022/06/13 10:51:40;;;;;;;1368.57;999.90;;;22.50;53.80;;;;;;5023370;28;20350;-88
2022/06/13 10:54:12;;;;;;;1649.50;999.90;;;22.60;50.80;;;;;;5044827;28;20028;-90
2022/06/13 10:57:00;;;;;;;1639.97;999.90;;;22.70;48.60;;;;;;5037166;28;20051;-88
2022/06/13 10:59:35;;;;;;;1905.72;999.90;;;23.00;47.50;;;;;;5035774;28;20029;-91
2022/06/13 11:02:06;;;;;;;1890.25;999.90;;;23.20;46.80;;;;;;5038205;28;20512;-89
2022/06/13 11:04:34;;;;;;;1606.18;999.90;;;23.40;48.10;;;;;;5041025;28;20116;-90
2022/06/13 11:07:12;;;;;;;1999.90;999.90;;;23.70;45.50;;;;;;5040079;28;20033;-88
2022/06/13 11:09:41;;;;;;;1997.70;999.90;;;24.20;43.30;;;;;;5036531;28;20029;-89
2022/06/13 11:12:17;;;;;;;1984.95;999.90;;;24.20;43.30;;;;;;5033571;28;20034;-90
2022/06/13 11:23:20;;;;;;;1650.15;999.90;;;24.90;41.00;;;;;;5041187;28;20142;-91
2022/06/13 11:25:58;;;;;;;1999.90;999.90;;;25.90;36.80;;;;;;5045915;28;20029;-90
2022/06/13 11:28:27;;;;;;;1999.90;999.90;;;25.70;39.30;;;;;;5044207;28;20017;-90
2022/06/13 11:31:17;;;;;;;1999.90;999.90;;;25.60;39.00;;;;;;5035021;28;20034;-89
2022/06/13 11:33:42;;;;;;;1986.97;999.90;;;25.10;39.40;;;;;;5035182;28;20037;-89
2022/06/13 11:36:19;;;;;;;1999.90;999.90;;;25.80;37.30;;;;;;5038652;28;20036;-90
2022/06/13 11:38:52;;;;;;;1999.90;999.90;;;26.60;37.60;;;;;;5036216;28;20370;-90
2022/06/13 11:41:40;;;;;;;1687.72;999.90;;;26.80;36.80;;;;;;5036953;28;20033;-91
2022/06/13 11:44:07;;;;;;;1553.30;999.90;;;26.40;35.80;;;;;;5034281;28;20130;-90
2022/06/13 11:46:43;;;;;;;1999.90;999.90;;;26.20;34.90;;;;;;5032855;28;20492;-90
2022/06/13 11:49:15;;;;;;;1999.90;999.90;;;26.80;33.90;;;;;;5029463;28;20034;-89
2022/06/13 11:52:09;;;;;;;1999.90;999.90;;;27.00;36.50;;;;;;5029478;28;20135;-90
2022/06/13 11:54:52;;;;;;;1999.90;999.90;;;27.10;37.00;;;;;;5030047;28;20038;-89
2022/06/13 11:57:31;;;;;;;1999.90;999.90;;;25.30;35.80;;;;;;5027571;28;20080;-90
2022/06/13 12:00:03;;;;;;;1999.90;999.90;;;25.60;40.40;;;;;;5040998;28;20049;-89
2022/06/13 12:02:39;;;;;;;1999.90;999.90;;;26.90;37.30;;;;;;5050619;28;20040;-90
2022/06/13 12:05:12;;;;;;;1999.90;999.90;;;26.60;34.80;;;;;;5036782;28;20291;-90
2022/06/13 12:07:38;;;;;;;1999.90;999.90;;;26.20;37.80;;;;;;5037893;28;20080;-89
2022/06/13 12:10:17;;;;;;;1999.90;999.90;;;26.80;40.20;;;;;;5036465;28;20496;-91
2022/06/13 12:12:45;;;;;;;1999.90;999.90;;;27.40;35.40;;;;;;5047159;28;20049;-91
2022/06/13 12:15:12;;;;;;;1991.68;999.90;;;27.20;33.00;;;;;;5035115;28;20477;-91
2022/06/13 12:17:47;;;;;;;1999.90;999.90;;;27.30;35.40;;;;;;5034276;28;20036;-92
2022/06/13 12:20:24;;;;;;;1999.90;999.90;;;27.30;34.90;;;;;;5026565;28;20041;-91
2022/06/13 12:23:03;;;;;;;1999.90;999.90;;;28.60;32.50;;;;;;5036632;28;20029;-90
2022/06/13 12:25:52;;;;;;;1999.90;999.90;;;28.00;33.60;;;;;;5038377;28;20041;-90
2022/06/13 12:28:23;;;;;;;1999.90;999.90;;;27.70;34.00;;;;;;5040870;28;20228;-91
2022/06/13 12:31:10;;;;;;;1999.90;999.90;;;26.80;37.90;;;;;;5032529;28;20142;-89
2022/06/13 12:34:03;;;;;;;1999.90;999.90;;;27.80;33.80;;;;;;5034373;28;20032;-89
2022/06/13 12:36:38;;;;;;;1999.90;999.90;;;27.70;32.90;;;;;;5037196;28;20397;-89
2022/06/13 12:39:21;;;;;;;1999.90;999.90;;;28.20;33.50;;;;;;5033235;28;20057;-90
2022/06/13 12:42:05;;;;;;;1999.90;999.90;;;28.30;34.30;;;;;;5033957;28;20108;-90
2022/06/13 12:44:49;;;;;;;1999.90;999.90;;;28.70;34.10;;;;;;5024336;28;20476;-90
2022/06/13 12:47:21;;;;;;;1999.90;999.90;;;29.90;37.10;;;;;;5030330;28;20045;-90
2022/06/13 12:50:12;;;;;;;1999.90;999.90;;;30.20;30.30;;;;;;5029404;28;20144;-89
2022/06/13 12:53:05;;;;;;;1999.90;999.90;;;30.30;30.00;;;;;;5038346;28;20492;-89
2022/06/13 12:55:53;;;;;;;1999.90;999.90;;;28.50;30.60;;;;;;5039042;28;20104;-90
2022/06/13 12:58:44;;;;;;;1999.90;999.90;;;27.60;33.70;;;;;;5042492;28;20029;-90
2022/06/13 13:01:25;;;;;;;1999.90;999.90;;;26.50;33.50;;;;;;5037272;28;20049;-89